Weather at Bradley International Airport

Public forecast

Using degrees Fahrenheit for public forecast. Weather courtesy of forecast.io.

Current aviation weather report (METAR) for Bradley International Airport

Retrieved 2021/07/29 01:51 UTC (1 hour ago):

KBDL 290151Z 00000KT 10SM FEW070 21/16 A3002 RMK AO2 SLP163 T02060156

Aviation forecast (TAF) for Bradley International Airport

Retrieved 2021-07-29 00:30 UTC (2 hours ago):

TAF KBDL 282326Z 2900/3006 00000KT P6SM SCT200 FM290800 18003KT P6SM SCT025 FM291000 18003KT P6SM BKN025 FM291600 18008KT P6SM VCSH BKN040 FM292100 18009KT 6SM -RA BR OVC020 FM300300 16006KT 5SM -SHRA BR OVC015